Reevesville, Illinois
Current Conditions -  °F | °C
As of 2:15 PM on Sunday 25 Jan 2015 (Local Time) from KM30 Reporting Station
Moderate Rain Moderate Rain  
Wind Chill: 40°   Ceiling: 2100
Heat Index: 42°   Visibility: 5mi
Dew Point: 42°   Wind: 5mph
Humidity: 100%   Direction: 220°SW
Pressure: 29.6"   Gusts: NA
Location:  37.3798°N, 88.7652°W
Report Text: KM30 252015Z AUTO 22004KT 5SM RA SCT006 BKN021 OVC028 06/06 A2960 RMK AO2 P0003 T00580058
Loading
Personal Weather Stations






























Interactive Weather Map New forecast layout! Learn more

10-Day Weather Forecast

Advertisements
Track Severe Weather on mobile